DAL2969 KJFK-UKBB
Flight info
| Callsign | DAL2969 |
|---|---|
| Flight time | N/A |
| Altitude | 35000 |
| Route | BETTE DCT ACK DCT TUSKY DCT 47N060W DCT ALLRY/M081F350 DCT 51N050W 55N040W 59N030W 61N020W/N0468F350 61N000W 5753N00914E 5453N01506E 5401N01701E 5118N02339E/K0861F350 DCT SLV |
| Aircraft | A339/H-SADE1E2E3GHIJ3J5M1P2RWXY/LB2D1 |
Departure
| Time | N/A |
|---|---|
| Airport | John F. Kennedy International Airport (KJFK) |
Arrival
| Time | 2025-10-08 23:27 |
|---|---|
| Airport | Boryspil International Airport (UKBB) |
| Time | Latitude | Longitude | Altitude | Speed | Heading |
|---|---|---|---|---|---|
| 2025-10-08 16:41 | 47.96647 | -58.01755 | 34980 ft | 528 kts | 54° |
| 2025-10-08 16:42 | 48.09266 | -57.74777 | 34982 ft | 527 kts | 54° |
| 2025-10-08 16:45 | 48.27995 | -57.34242 | 34977 ft | 525 kts | 54° |
| 2025-10-08 16:46 | 48.42439 | -57.02562 | 34973 ft | 524 kts | 55° |
| 2025-10-08 16:48 | 48.58783 | -56.66248 | 34949 ft | 522 kts | 55° |
| 2025-10-08 16:50 | 48.74953 | -56.29836 | 34960 ft | 519 kts | 55° |
| 2025-10-08 16:52 | 48.90912 | -55.93410 | 34961 ft | 516 kts | 56° |
| 2025-10-08 16:54 | 49.06662 | -55.56973 | 34962 ft | 514 kts | 56° |
| 2025-10-08 16:57 | 49.24191 | -55.15823 | 34953 ft | 513 kts | 56° |
| 2025-10-08 16:58 | 49.37679 | -54.83718 | 34949 ft | 510 kts | 56° |
| 2025-10-08 17:00 | 49.52905 | -54.47011 | 34936 ft | 507 kts | 56° |
| 2025-10-08 17:02 | 49.67920 | -54.10315 | 34914 ft | 506 kts | 57° |
| 2025-10-08 17:05 | 49.84020 | -53.70391 | 34900 ft | 504 kts | 57° |
| 2025-10-08 17:06 | 49.96918 | -53.37965 | 34900 ft | 504 kts | 58° |
| 2025-10-08 17:09 | 50.13366 | -52.96016 | 34900 ft | 505 kts | 58° |
| 2025-10-08 17:10 | 50.26069 | -52.63143 | 34904 ft | 505 kts | 59° |
| 2025-10-08 17:12 | 50.40467 | -52.25394 | 34914 ft | 505 kts | 59° |
| 2025-10-08 17:14 | 50.53505 | -51.86434 | 34915 ft | 504 kts | 69° |
| 2025-10-08 17:16 | 50.64003 | -51.45546 | 34931 ft | 503 kts | 68° |
| 2025-10-08 17:18 | 50.74364 | -51.04693 | 34940 ft | 501 kts | 69° |
| 2025-10-08 17:20 | 50.84545 | -50.63755 | 34939 ft | 499 kts | 69° |
| 2025-10-08 17:22 | 50.94546 | -50.22762 | 34942 ft | 498 kts | 70° |
| 2025-10-08 17:24 | 51.07463 | -49.84392 | 34936 ft | 497 kts | 52° |
| 2025-10-08 17:26 | 51.24297 | -49.49363 | 34946 ft | 497 kts | 53° |
| 2025-10-08 17:28 | 51.40969 | -49.13960 | 34947 ft | 498 kts | 53° |
| 2025-10-08 17:30 | 51.57523 | -48.78312 | 34948 ft | 499 kts | 54° |
| 2025-10-08 17:32 | 51.74031 | -48.42266 | 34956 ft | 500 kts | 54° |
| 2025-10-08 17:34 | 51.90419 | -48.05976 | 34943 ft | 501 kts | 55° |
| 2025-10-08 17:36 | 52.06750 | -47.69301 | 34957 ft | 501 kts | 55° |
| 2025-10-08 17:38 | 52.22988 | -47.32310 | 34954 ft | 502 kts | 55° |
| 2025-10-08 17:40 | 52.39099 | -46.95076 | 34948 ft | 502 kts | 56° |
| 2025-10-08 17:42 | 52.55120 | -46.57503 | 34961 ft | 502 kts | 56° |
| 2025-10-08 17:44 | 52.70354 | -46.21254 | 34961 ft | 502 kts | 56° |
| 2025-10-08 17:46 | 52.86125 | -45.83180 | 34964 ft | 503 kts | 56° |
| 2025-10-08 17:48 | 52.99853 | -45.49565 | 34969 ft | 503 kts | 56° |
| 2025-10-08 17:50 | 53.17341 | -45.06091 | 34955 ft | 502 kts | 56° |
| 2025-10-08 17:52 | 53.32734 | -44.67200 | 34963 ft | 502 kts | 56° |
| 2025-10-08 17:54 | 53.48005 | -44.28014 | 34967 ft | 503 kts | 56° |
| 2025-10-08 17:56 | 53.63189 | -43.88432 | 34974 ft | 503 kts | 57° |
| 2025-10-08 17:58 | 53.78236 | -43.48583 | 34963 ft | 504 kts | 57° |
| 2025-10-08 18:00 | 53.93199 | -43.08317 | 34973 ft | 505 kts | 57° |
| 2025-10-08 18:02 | 54.08014 | -42.67794 | 34999 ft | 505 kts | 58° |
| 2025-10-08 18:04 | 54.22731 | -42.26869 | 35004 ft | 505 kts | 58° |
| 2025-10-08 18:06 | 54.37323 | -41.85614 | 34987 ft | 506 kts | 58° |
| 2025-10-08 18:08 | 54.51744 | -41.44152 | 34983 ft | 506 kts | 58° |
| 2025-10-08 18:10 | 54.66042 | -41.02338 | 34999 ft | 507 kts | 59° |
| 2025-10-08 18:12 | 54.80205 | -40.60201 | 35000 ft | 507 kts | 59° |
| 2025-10-08 18:14 | 54.92516 | -40.23037 | 35009 ft | 507 kts | 59° |
| 2025-10-08 18:16 | 55.10542 | -39.78099 | 35012 ft | 504 kts | 46° |
| 2025-10-08 18:18 | 55.26489 | -39.45267 | 35012 ft | 506 kts | 48° |
| 2025-10-08 18:20 | 55.46776 | -39.02382 | 35013 ft | 508 kts | 49° |
| 2025-10-08 18:22 | 55.64739 | -38.63776 | 35013 ft | 509 kts | 49° |
| 2025-10-08 18:24 | 55.82639 | -38.24689 | 35018 ft | 512 kts | 49° |
| 2025-10-08 18:26 | 55.97527 | -37.91699 | 35020 ft | 513 kts | 49° |
| 2025-10-08 18:28 | 56.17560 | -37.46589 | 35021 ft | 515 kts | 49° |
| 2025-10-08 18:30 | 56.35307 | -37.05918 | 35022 ft | 517 kts | 50° |
| 2025-10-08 18:32 | 56.52947 | -36.64804 | 35019 ft | 519 kts | 50° |
| 2025-10-08 18:34 | 56.68345 | -36.28336 | 35030 ft | 520 kts | 50° |
| 2025-10-08 18:36 | 56.88050 | -35.80853 | 35030 ft | 522 kts | 50° |
| 2025-10-08 18:38 | 57.03250 | -35.43574 | 35044 ft | 523 kts | 50° |
| 2025-10-08 18:40 | 57.22739 | -34.94921 | 35031 ft | 525 kts | 51° |
| 2025-10-08 18:42 | 57.37780 | -34.56687 | 35037 ft | 527 kts | 51° |
| 2025-10-08 18:44 | 57.57046 | -34.06809 | 35043 ft | 528 kts | 51° |
| 2025-10-08 18:46 | 57.71905 | -33.67620 | 35041 ft | 530 kts | 51° |
| 2025-10-08 18:48 | 57.90911 | -33.16536 | 35049 ft | 531 kts | 52° |
| 2025-10-08 18:50 | 58.05548 | -32.76442 | 35048 ft | 532 kts | 52° |
| 2025-10-08 18:52 | 58.24255 | -32.24196 | 35042 ft | 533 kts | 52° |
| 2025-10-08 18:54 | 58.38670 | -31.83138 | 35046 ft | 533 kts | 53° |
| 2025-10-08 18:56 | 58.57020 | -31.29826 | 35042 ft | 534 kts | 53° |
| 2025-10-08 18:58 | 58.73206 | -30.81783 | 35032 ft | 536 kts | 53° |
| 2025-10-08 19:00 | 58.89247 | -30.33220 | 35031 ft | 538 kts | 53° |
| 2025-10-08 19:02 | 59.04186 | -29.82768 | 35021 ft | 546 kts | 62° |
| 2025-10-08 19:05 | 59.19014 | -29.22906 | 35010 ft | 546 kts | 60° |
| 2025-10-08 19:06 | 59.29841 | -28.78128 | 35005 ft | 547 kts | 60° |
| 2025-10-08 19:09 | 59.44219 | -28.17100 | 34995 ft | 549 kts | 60° |
| 2025-10-08 19:10 | 59.53656 | -27.76051 | 34981 ft | 549 kts | 60° |
| 2025-10-08 19:12 | 59.67593 | -27.13926 | 34980 ft | 550 kts | 60° |
| 2025-10-08 19:14 | 59.78226 | -26.65249 | 34970 ft | 551 kts | 61° |
| 2025-10-08 19:16 | 59.91676 | -26.01984 | 34957 ft | 552 kts | 61° |
| 2025-10-08 19:18 | 60.03394 | -25.45223 | 34945 ft | 553 kts | 62° |
| 2025-10-08 19:20 | 60.14890 | -24.87914 | 34930 ft | 555 kts | 62° |
| 2025-10-08 19:22 | 60.26165 | -24.30073 | 34920 ft | 557 kts | 63° |
| 2025-10-08 19:24 | 60.37248 | -23.71524 | 34900 ft | 559 kts | 64° |
| 2025-10-08 19:26 | 60.48086 | -23.12474 | 34887 ft | 561 kts | 64° |
| 2025-10-08 19:28 | 60.57376 | -22.60349 | 34873 ft | 562 kts | 65° |
| 2025-10-08 19:30 | 60.69067 | -21.92636 | 34847 ft | 564 kts | 65° |
| 2025-10-08 19:32 | 60.79207 | -21.31819 | 34833 ft | 566 kts | 66° |
| 2025-10-08 19:34 | 60.89092 | -20.70472 | 34828 ft | 568 kts | 67° |
| 2025-10-08 19:36 | 60.98764 | -20.08491 | 34816 ft | 569 kts | 69° |
| 2025-10-08 19:38 | 61.03914 | -19.43484 | 34808 ft | 577 kts | 78° |
| 2025-10-08 19:40 | 61.08516 | -18.77769 | 34807 ft | 579 kts | 79° |
| 2025-10-08 19:42 | 61.12200 | -18.19950 | 34796 ft | 580 kts | 80° |
| 2025-10-08 19:44 | 61.16092 | -17.53704 | 34786 ft | 580 kts | 81° |
| 2025-10-08 19:46 | 61.20076 | -16.78953 | 34775 ft | 580 kts | 82° |
| 2025-10-08 19:48 | 61.23266 | -16.12391 | 34761 ft | 579 kts | 83° |
| 2025-10-08 19:50 | 61.26003 | -15.48592 | 34752 ft | 578 kts | 84° |
| 2025-10-08 19:52 | 61.28535 | -14.82046 | 34742 ft | 577 kts | 85° |
| 2025-10-08 19:54 | 61.30734 | -14.15565 | 34734 ft | 576 kts | 86° |
| 2025-10-08 19:56 | 61.32608 | -13.48982 | 34729 ft | 575 kts | 88° |
| 2025-10-08 19:58 | 61.33973 | -12.90858 | 34724 ft | 575 kts | 89° |
| 2025-10-08 20:00 | 61.35369 | -12.15834 | 34720 ft | 575 kts | 90° |
| 2025-10-08 20:02 | 61.36167 | -11.57485 | 34721 ft | 575 kts | 91° |
| 2025-10-08 20:04 | 61.36819 | -10.82423 | 34715 ft | 575 kts | 92° |
| 2025-10-08 20:06 | 61.37040 | -10.24051 | 34707 ft | 575 kts | 92° |
| 2025-10-08 20:08 | 61.36961 | -9.49088 | 34700 ft | 575 kts | 93° |
| 2025-10-08 20:10 | 61.36614 | -8.90674 | 34694 ft | 575 kts | 94° |
| 2025-10-08 20:12 | 61.35802 | -8.15707 | 34695 ft | 575 kts | 94° |
| 2025-10-08 20:14 | 61.34886 | -7.57406 | 34713 ft | 574 kts | 95° |
| 2025-10-08 20:16 | 61.33353 | -6.82924 | 34704 ft | 570 kts | 95° |
| 2025-10-08 20:18 | 61.31660 | -6.17174 | 34696 ft | 567 kts | 96° |
| 2025-10-08 20:20 | 61.29663 | -5.51911 | 34698 ft | 564 kts | 96° |
| 2025-10-08 20:22 | 61.27365 | -4.87060 | 34709 ft | 562 kts | 97° |
| 2025-10-08 20:24 | 61.24768 | -4.22518 | 34716 ft | 559 kts | 97° |
| 2025-10-08 20:26 | 61.21883 | -3.58461 | 34710 ft | 556 kts | 98° |
| 2025-10-08 20:28 | 61.18715 | -2.94908 | 34717 ft | 554 kts | 98° |
| 2025-10-08 20:30 | 61.15253 | -2.31531 | 34725 ft | 552 kts | 99° |
| 2025-10-08 20:32 | 61.11670 | -1.71147 | 34727 ft | 551 kts | 99° |
| 2025-10-08 20:34 | 61.08168 | -1.16181 | 34745 ft | 550 kts | 99° |
| 2025-10-08 20:36 | 61.03395 | -0.45887 | 34752 ft | 548 kts | 99° |
| 2025-10-08 20:38 | 60.97878 | 0.07437 | 34756 ft | 542 kts | 120° |
| 2025-10-08 20:40 | 60.80918 | 0.67643 | 34792 ft | 542 kts | 122° |
| 2025-10-08 20:42 | 60.65776 | 1.20797 | 34814 ft | 541 kts | 122° |
| 2025-10-08 20:44 | 60.50415 | 1.73374 | 34831 ft | 539 kts | 122° |
| 2025-10-08 20:46 | 60.36868 | 2.18727 | 34856 ft | 538 kts | 122° |
| 2025-10-08 20:48 | 60.19188 | 2.76547 | 34887 ft | 538 kts | 121° |
| 2025-10-08 20:50 | 60.05290 | 3.20982 | 34918 ft | 536 kts | 122° |
| 2025-10-08 20:52 | 59.87303 | 3.77241 | 34942 ft | 533 kts | 122° |
| 2025-10-08 20:54 | 59.73210 | 4.20386 | 34971 ft | 531 kts | 122° |
| 2025-10-08 20:56 | 59.54967 | 4.75076 | 35001 ft | 528 kts | 122° |
| 2025-10-08 20:58 | 59.40693 | 5.16994 | 35006 ft | 527 kts | 122° |
| 2025-10-08 21:00 | 59.22147 | 5.70369 | 35022 ft | 527 kts | 123° |
| 2025-10-08 21:02 | 59.07600 | 6.11428 | 35050 ft | 529 kts | 123° |
| 2025-10-08 21:04 | 58.88622 | 6.63896 | 35070 ft | 529 kts | 124° |
| 2025-10-08 21:06 | 58.73665 | 7.04465 | 35073 ft | 531 kts | 125° |
| 2025-10-08 21:08 | 58.54390 | 7.55692 | 35067 ft | 522 kts | 126° |
| 2025-10-08 21:10 | 58.37328 | 8.00130 | 35068 ft | 516 kts | 126° |
| 2025-10-08 21:12 | 58.20305 | 8.43673 | 35063 ft | 512 kts | 127° |
| 2025-10-08 21:14 | 58.03896 | 8.84923 | 35053 ft | 512 kts | 127° |
| 2025-10-08 21:16 | 57.86528 | 9.27529 | 35062 ft | 511 kts | 131° |
| 2025-10-08 21:18 | 57.70382 | 9.63005 | 35072 ft | 512 kts | 132° |
| 2025-10-08 21:20 | 57.49469 | 10.08228 | 35081 ft | 511 kts | 133° |
| 2025-10-08 21:22 | 57.30782 | 10.47914 | 35090 ft | 510 kts | 134° |
| 2025-10-08 21:24 | 57.12061 | 10.87020 | 35088 ft | 508 kts | 134° |
| 2025-10-08 21:26 | 56.95609 | 11.20857 | 35102 ft | 507 kts | 135° |
| 2025-10-08 21:28 | 56.74362 | 11.63846 | 35090 ft | 506 kts | 135° |
| 2025-10-08 21:30 | 56.57780 | 11.96861 | 35091 ft | 505 kts | 136° |
| 2025-10-08 21:32 | 56.36349 | 12.38849 | 35102 ft | 505 kts | 136° |
| 2025-10-08 21:34 | 56.19558 | 12.71230 | 35098 ft | 505 kts | 136° |
| 2025-10-08 21:36 | 55.97850 | 13.12435 | 35126 ft | 506 kts | 136° |
| 2025-10-08 21:38 | 55.78408 | 13.48743 | 35128 ft | 507 kts | 136° |
| 2025-10-08 21:40 | 55.58805 | 13.84791 | 35123 ft | 508 kts | 136° |
| 2025-10-08 21:42 | 55.39074 | 14.20517 | 35121 ft | 508 kts | 136° |
| 2025-10-08 21:44 | 55.19225 | 14.55916 | 35123 ft | 509 kts | 136° |
| 2025-10-08 21:46 | 55.01748 | 14.86648 | 35128 ft | 511 kts | 135° |
| 2025-10-08 21:48 | 54.80470 | 15.27987 | 35106 ft | 512 kts | 126° |
| 2025-10-08 21:50 | 54.65386 | 15.62380 | 35099 ft | 512 kts | 127° |
| 2025-10-08 21:52 | 54.45773 | 16.06032 | 35105 ft | 512 kts | 127° |
| 2025-10-08 21:54 | 54.30416 | 16.39725 | 35104 ft | 512 kts | 126° |
| 2025-10-08 21:56 | 54.11317 | 16.81024 | 35105 ft | 511 kts | 126° |
| 2025-10-08 21:58 | 53.94837 | 17.20123 | 35111 ft | 506 kts | 117° |
| 2025-10-08 22:00 | 53.80126 | 17.60886 | 35116 ft | 507 kts | 117° |
| 2025-10-08 22:02 | 53.65235 | 18.01254 | 35114 ft | 506 kts | 116° |
| 2025-10-08 22:04 | 53.50223 | 18.41278 | 35157 ft | 504 kts | 117° |
| 2025-10-08 22:06 | 53.37003 | 18.75990 | 35185 ft | 504 kts | 117° |
| 2025-10-08 22:08 | 53.19929 | 19.20094 | 35234 ft | 502 kts | 117° |
| 2025-10-08 22:10 | 53.04669 | 19.58870 | 35129 ft | 500 kts | 117° |
| 2025-10-08 22:12 | 52.89313 | 19.97286 | 35138 ft | 498 kts | 117° |
| 2025-10-08 22:14 | 52.75863 | 20.30473 | 35138 ft | 497 kts | 118° |
| 2025-10-08 22:16 | 52.58440 | 20.72832 | 35155 ft | 495 kts | 118° |
| 2025-10-08 22:18 | 52.44841 | 21.05393 | 35150 ft | 494 kts | 119° |
| 2025-10-08 22:20 | 52.27211 | 21.46985 | 35145 ft | 494 kts | 120° |
| 2025-10-08 22:22 | 52.13421 | 21.79065 | 35152 ft | 494 kts | 120° |
| 2025-10-08 22:24 | 51.95587 | 22.19988 | 35152 ft | 493 kts | 121° |
| 2025-10-08 22:26 | 51.79607 | 22.56111 | 35149 ft | 493 kts | 122° |
| 2025-10-08 22:28 | 51.63550 | 22.91894 | 35148 ft | 492 kts | 123° |
| 2025-10-08 22:30 | 51.47413 | 23.27351 | 35141 ft | 491 kts | 124° |
| 2025-10-08 22:32 | 51.31291 | 23.62631 | 35136 ft | 491 kts | 118° |
| 2025-10-08 22:34 | 51.23861 | 24.03682 | 35157 ft | 482 kts | 103° |
| 2025-10-08 22:36 | 51.17098 | 24.44701 | 35136 ft | 478 kts | 104° |
| 2025-10-08 22:38 | 51.11354 | 24.78701 | 35127 ft | 475 kts | 104° |
| 2025-10-08 22:40 | 51.03561 | 25.24043 | 35116 ft | 471 kts | 105° |
| 2025-10-08 22:42 | 50.97408 | 25.58992 | 35107 ft | 468 kts | 107° |
| 2025-10-08 22:44 | 50.89390 | 26.03548 | 35089 ft | 466 kts | 108° |
| 2025-10-08 22:46 | 50.83061 | 26.37962 | 35080 ft | 466 kts | 108° |
| 2025-10-08 22:48 | 50.74764 | 26.82140 | 35066 ft | 467 kts | 108° |
| 2025-10-08 22:50 | 50.67236 | 27.21362 | 35052 ft | 467 kts | 109° |
| 2025-10-08 22:52 | 50.59587 | 27.60399 | 35039 ft | 467 kts | 109° |
| 2025-10-08 22:54 | 50.51806 | 27.99327 | 35027 ft | 466 kts | 109° |
| 2025-10-08 22:56 | 50.43939 | 28.37917 | 35009 ft | 463 kts | 110° |
| 2025-10-08 22:58 | 50.35965 | 28.76273 | 34993 ft | 462 kts | 110° |
| 2025-10-08 23:00 | 50.27895 | 29.14364 | 34975 ft | 461 kts | 110° |
| 2025-10-08 23:02 | 50.20740 | 29.47572 | 33726 ft | 460 kts | 110° |
| 2025-10-08 23:04 | 50.28056 | 29.87679 | 27479 ft | 429 kts | 65° |
| 2025-10-08 23:06 | 50.34357 | 30.08311 | 24515 ft | 412 kts | 68° |
| 2025-10-08 23:06 | 50.36776 | 30.16397 | 23247 ft | 408 kts | 68° |
| 2025-10-08 23:07 | 50.39123 | 30.24339 | 22137 ft | 395 kts | 71° |
| 2025-10-08 23:07 | 50.38673 | 30.36539 | 20467 ft | 374 kts | 112° |
| 2025-10-08 23:08 | 50.36852 | 30.44067 | 19348 ft | 366 kts | 111° |
| 2025-10-08 23:08 | 50.35171 | 30.51517 | 18222 ft | 361 kts | 110° |
| 2025-10-08 23:09 | 50.34355 | 30.55214 | 17696 ft | 356 kts | 110° |
| 2025-10-08 23:09 | 50.32765 | 30.62425 | 16651 ft | 346 kts | 110° |
| 2025-10-08 23:10 | 50.31083 | 30.69236 | 16046 ft | 321 kts | 124° |
| 2025-10-08 23:10 | 50.27751 | 30.72982 | 15790 ft | 289 kts | 167° |
| 2025-10-08 23:11 | 50.23940 | 30.73958 | 15264 ft | 271 kts | 169° |
| 2025-10-08 23:12 | 50.16610 | 30.75073 | 14305 ft | 264 kts | 181° |
| 2025-10-08 23:12 | 50.12949 | 30.74845 | 13839 ft | 262 kts | 182° |
| 2025-10-08 23:12 | 50.11131 | 30.74713 | 13580 ft | 261 kts | 182° |
| 2025-10-08 23:13 | 50.07509 | 30.74435 | 13054 ft | 259 kts | 182° |
| 2025-10-08 23:13 | 50.03906 | 30.74150 | 12428 ft | 258 kts | 181° |
| 2025-10-08 23:14 | 50.00332 | 30.73878 | 11768 ft | 256 kts | 181° |
| 2025-10-08 23:14 | 49.96788 | 30.73611 | 11100 ft | 254 kts | 180° |
| 2025-10-08 23:15 | 49.91545 | 30.73220 | 10194 ft | 253 kts | 179° |
| 2025-10-08 23:15 | 49.89797 | 30.73102 | 9860 ft | 248 kts | 177° |
| 2025-10-08 23:16 | 49.86896 | 30.75343 | 9220 ft | 239 kts | 123° |
| 2025-10-08 23:16 | 49.86348 | 30.80269 | 8633 ft | 237 kts | 89° |
| 2025-10-08 23:17 | 49.87448 | 30.84912 | 8075 ft | 242 kts | 45° |
| 2025-10-08 23:17 | 49.90637 | 30.86329 | 7425 ft | 249 kts | 3° |
| 2025-10-08 23:18 | 49.94052 | 30.86300 | 6786 ft | 243 kts | 4° |
| 2025-10-08 23:18 | 49.97403 | 30.86467 | 6169 ft | 239 kts | 7° |
| 2025-10-08 23:19 | 50.01640 | 30.86819 | 5401 ft | 218 kts | 7° |
| 2025-10-08 23:19 | 50.03604 | 30.86993 | 5039 ft | 209 kts | 7° |
| 2025-10-08 23:20 | 50.06510 | 30.87262 | 4527 ft | 224 kts | 8° |
| 2025-10-08 23:20 | 50.09111 | 30.87686 | 4349 ft | 223 kts | 9° |
| 2025-10-08 23:21 | 50.12235 | 30.88194 | 4147 ft | 227 kts | 8° |
| 2025-10-08 23:21 | 50.15366 | 30.88657 | 3775 ft | 226 kts | 8° |
| 2025-10-08 23:22 | 50.18420 | 30.89057 | 3214 ft | 205 kts | 7° |
| 2025-10-08 23:22 | 50.21070 | 30.89358 | 2722 ft | 177 kts | 8° |
| 2025-10-08 23:23 | 50.23385 | 30.89592 | 2269 ft | 165 kts | 9° |
| 2025-10-08 23:23 | 50.25465 | 30.89785 | 1866 ft | 146 kts | 10° |
| 2025-10-08 23:24 | 50.27488 | 30.89977 | 1465 ft | 148 kts | 9° |
| 2025-10-08 23:24 | 50.29513 | 30.90163 | 1046 ft | 142 kts | 6° |
| 2025-10-08 23:25 | 50.31511 | 30.90313 | 662 ft | 140 kts | 4° |
| 2025-10-08 23:25 | 50.33450 | 30.90460 | 430 ft | 128 kts | 3° |
| 2025-10-08 23:26 | 50.34043 | 30.90499 | 419 ft | 47 kts | 2° |
| 2025-10-08 23:26 | 50.34266 | 30.90488 | 422 ft | 11 kts | 348° |
| 2025-10-08 23:27 | 50.34519 | 30.90294 | 425 ft | 16 kts | 332° |
| 2025-10-08 23:27 | 50.34733 | 30.90219 | 421 ft | 13 kts | 1° |
| 2025-10-08 23:28 | 50.34870 | 30.90200 | 423 ft | 9 kts | 329° |
| 2025-10-08 23:28 | 50.34897 | 30.89892 | 426 ft | 9 kts | 273° |
| 2025-10-08 23:29 | 50.34898 | 30.89851 | 430 ft | 0 kts | 273° |